Le Ponant — FGZZ — position and weather

sailwx.info

Track history (hours):
 
Tides and Currents Weather Stations Pressure Air Temp Water Temp Dewpoint Dewpoint Depression Visibility Wind Speed Wind Dir Waves Ship Positions

Le Ponant

Operator: Compangy des Iles du Ponant

Last reported at 2016-Jan-15 00:32 UTC. Time now 2016-Feb-13 10:44 UTC.
Position N 15°32' W 061°33'.
Warning: this ship's position is 29 days out of date.

Length 84 m; draft 4.2 m.

Type: Passenger vessel. MMSI: 227186000.

Date/timePositionNaut miles runAvg speedWind from/ knotsBaromVisibWave heightAir tempDewpointWater temp
2016-Jan-15 00:32N 15°32' W 061°33'84 1.9
2016-Jan-13 04:11N 16°49' W 062°07'  
2016-Jan-10 23:33N 17°00' W 061°55'8 8.2
2016-Jan-10 22:33N 17°00' W 061°47'1 0.6
2016-Jan-10 21:31N 17°01' W 061°47'0 0.0
2016-Jan-10 20:31N 17°01' W 061°47'0 0.0
2016-Jan-10 19:31N 17°01' W 061°47'0 0.0
2016-Jan-10 18:31N 17°01' W 061°47'0 0.0
2016-Jan-10 17:34N 17°01' W 061°47'0 0.0
2016-Jan-10 16:31N 17°01' W 061°47'0 0.0
2016-Jan-10 15:28N 17°01' W 061°47'3 3.5
2016-Jan-10 14:33N 16°58' W 061°48'1010.5
2016-Jan-10 13:33N 16°47' W 061°50'1410.8
2016-Jan-10 12:18N 16°34' W 061°49'  
Track history (hours):
 
Tides and Currents Weather Stations Pressure Air Temp Water Temp Dewpoint Dewpoint Depression Visibility Wind Speed Wind Dir Waves Ship Positions

Le Ponant

Operator: Compangy des Iles du Ponant

Last reported at 2016-Jan-15 00:32 UTC. Time now 2016-Feb-13 10:44 UTC.
Position N 15°32' W 061°33'.
Warning: this ship's position is 29 days out of date.

Length 84 m; draft 4.2 m.

Type: Passenger vessel. MMSI: 227186000.

Date/timePositionNaut miles runAvg speedWind from/ knotsBaromVisibWave heightAir tempDewpointWater temp
2016-Jan-15 00:32N 15°32' W 061°33'84 1.9
2016-Jan-13 04:11N 16°49' W 062°07'  
2016-Jan-10 23:33N 17°00' W 061°55'8 8.2
2016-Jan-10 22:33N 17°00' W 061°47'1 0.6
2016-Jan-10 21:31N 17°01' W 061°47'0 0.0
2016-Jan-10 20:31N 17°01' W 061°47'0 0.0
2016-Jan-10 19:31N 17°01' W 061°47'0 0.0
2016-Jan-10 18:31N 17°01' W 061°47'0 0.0
2016-Jan-10 17:34N 17°01' W 061°47'0 0.0
2016-Jan-10 16:31N 17°01' W 061°47'0 0.0
2016-Jan-10 15:28N 17°01' W 061°47'3 3.5
2016-Jan-10 14:33N 16°58' W 061°48'1010.5
2016-Jan-10 13:33N 16°47' W 061°50'1410.8
2016-Jan-10 12:18N 16°34' W 061°49'  

Dump ship's entire track history